sensor_id;sensor_type;location;lat;lon;timestamp;P1;durP1;ratioP1;P2;durP2;ratioP2
54919;SDS011;63804;53.120;8.764;2022-12-07T00:00:51;14.25;;;7.70;;
54919;SDS011;63804;53.120;8.764;2022-12-07T00:03:16;13.40;;;7.15;;
54919;SDS011;63804;53.120;8.764;2022-12-07T00:05:42;14.65;;;6.85;;
54919;SDS011;63804;53.120;8.764;2022-12-07T00:08:08;13.18;;;7.28;;
54919;SDS011;63804;53.120;8.764;2022-12-07T00:10:34;12.73;;;6.80;;
54919;SDS011;63804;53.120;8.764;2022-12-07T00:12:59;11.98;;;6.45;;
54919;SDS011;63804;53.120;8.764;2022-12-07T00:15:25;13.18;;;6.90;;
54919;SDS011;63804;53.120;8.764;2022-12-07T00:17:51;14.60;;;6.20;;
54919;SDS011;63804;53.120;8.764;2022-12-07T00:20:17;13.25;;;6.97;;
54919;SDS011;63804;53.120;8.764;2022-12-07T00:22:43;14.00;;;6.82;;
54919;SDS011;63804;53.120;8.764;2022-12-07T00:25:08;11.18;;;5.85;;
54919;SDS011;63804;53.120;8.764;2022-12-07T00:27:34;13.02;;;6.07;;
54919;SDS011;63804;53.120;8.764;2022-12-07T00:30:00;13.32;;;6.00;;
54919;SDS011;63804;53.120;8.764;2022-12-07T00:32:26;12.70;;;7.03;;
54919;SDS011;63804;53.120;8.764;2022-12-07T00:34:51;12.60;;;6.28;;
54919;SDS011;63804;53.120;8.764;2022-12-07T00:37:17;15.07;;;6.25;;
54919;SDS011;63804;53.120;8.764;2022-12-07T00:39:43;15.60;;;6.47;;
54919;SDS011;63804;53.120;8.764;2022-12-07T00:42:09;12.48;;;6.65;;
54919;SDS011;63804;53.120;8.764;2022-12-07T00:44:34;13.52;;;6.90;;
54919;SDS011;63804;53.120;8.764;2022-12-07T00:47:00;13.32;;;6.75;;
54919;SDS011;63804;53.120;8.764;2022-12-07T00:49:26;12.88;;;6.15;;
54919;SDS011;63804;53.120;8.764;2022-12-07T00:51:51;12.75;;;6.05;;
54919;SDS011;63804;53.120;8.764;2022-12-07T00:54:17;13.80;;;6.05;;
54919;SDS011;63804;53.120;8.764;2022-12-07T00:56:43;14.50;;;6.30;;
54919;SDS011;63804;53.120;8.764;2022-12-07T00:59:10;15.90;;;6.15;;
54919;SDS011;63804;53.120;8.764;2022-12-07T01:01:39;12.48;;;6.15;;
54919;SDS011;63804;53.120;8.764;2022-12-07T01:04:05;13.55;;;5.97;;
54919;SDS011;63804;53.120;8.764;2022-12-07T01:06:31;15.13;;;5.38;;
54919;SDS011;63804;53.120;8.764;2022-12-07T01:08:57;14.13;;;5.97;;
54919;SDS011;63804;53.120;8.764;2022-12-07T01:11:25;12.15;;;5.20;;
54919;SDS011;63804;53.120;8.764;2022-12-07T01:13:53;13.90;;;5.65;;
54919;SDS011;63804;53.120;8.764;2022-12-07T01:16:20;11.50;;;5.03;;
54919;SDS011;63804;53.120;8.764;2022-12-07T01:18:49;13.52;;;5.32;;
54919;SDS011;63804;53.120;8.764;2022-12-07T01:21:17;14.52;;;5.70;;
54919;SDS011;63804;53.120;8.764;2022-12-07T01:23:47;15.60;;;4.65;;
54919;SDS011;63804;53.120;8.764;2022-12-07T01:26:14;11.77;;;4.50;;
54919;SDS011;63804;53.120;8.764;2022-12-07T01:28:42;13.30;;;4.90;;
54919;SDS011;63804;53.120;8.764;2022-12-07T01:31:10;12.57;;;5.05;;
54919;SDS011;63804;53.120;8.764;2022-12-07T01:33:40;13.00;;;4.80;;
54919;SDS011;63804;53.120;8.764;2022-12-07T01:36:29;12.30;;;4.20;;
54919;SDS011;63804;53.120;8.764;2022-12-07T01:38:58;10.88;;;4.03;;
54919;SDS011;63804;53.120;8.764;2022-12-07T01:41:30;12.55;;;3.75;;
54919;SDS011;63804;53.120;8.764;2022-12-07T01:46:49;10.82;;;3.88;;
54919;SDS011;63804;53.120;8.764;2022-12-07T01:52:03;14.73;;;3.88;;
54919;SDS011;63804;53.120;8.764;2022-12-07T01:54:33;11.98;;;3.92;;
54919;SDS011;63804;53.120;8.764;2022-12-07T01:57:00;15.07;;;3.47;;
54919;SDS011;63804;53.120;8.764;2022-12-07T01:59:27;9.52;;;3.28;;
54919;SDS011;63804;53.120;8.764;2022-12-07T02:01:53;9.20;;;3.00;;
54919;SDS011;63804;53.120;8.764;2022-12-07T02:04:21;9.32;;;2.88;;
54919;SDS011;63804;53.120;8.764;2022-12-07T02:06:48;13.07;;;3.40;;
54919;SDS011;63804;53.120;8.764;2022-12-07T02:09:13;10.00;;;3.30;;
54919;SDS011;63804;53.120;8.764;2022-12-07T02:11:39;7.80;;;3.20;;
54919;SDS011;63804;53.120;8.764;2022-12-07T02:14:06;11.70;;;3.30;;
54919;SDS011;63804;53.120;8.764;2022-12-07T02:28:29;11.73;;;4.15;;
54919;SDS011;63804;53.120;8.764;2022-12-07T02:31:01;11.70;;;3.80;;
54919;SDS011;63804;53.120;8.764;2022-12-07T02:33:36;13.43;;;4.30;;
54919;SDS011;63804;53.120;8.764;2022-12-07T02:38:54;8.65;;;3.35;;
54919;SDS011;63804;53.120;8.764;2022-12-07T02:41:26;10.43;;;3.83;;
54919;SDS011;63804;53.120;8.764;2022-12-07T02:44:04;10.23;;;3.80;;
54919;SDS011;63804;53.120;8.764;2022-12-07T02:46:42;11.40;;;4.00;;
54919;SDS011;63804;53.120;8.764;2022-12-07T02:49:21;13.15;;;3.67;;
54919;SDS011;63804;53.120;8.764;2022-12-07T02:51:49;10.50;;;4.07;;
54919;SDS011;63804;53.120;8.764;2022-12-07T02:54:15;8.80;;;3.42;;
54919;SDS011;63804;53.120;8.764;2022-12-07T03:02:18;15.13;;;4.30;;
54919;SDS011;63804;53.120;8.764;2022-12-07T03:05:11;10.77;;;3.65;;
54919;SDS011;63804;53.120;8.764;2022-12-07T03:10:40;12.38;;;3.35;;
54919;SDS011;63804;53.120;8.764;2022-12-07T03:13:12;14.85;;;4.63;;
54919;SDS011;63804;53.120;8.764;2022-12-07T03:16:07;13.35;;;4.45;;
54919;SDS011;63804;53.120;8.764;2022-12-07T03:18:42;11.90;;;4.38;;
54919;SDS011;63804;53.120;8.764;2022-12-07T03:21:31;14.38;;;4.50;;
54919;SDS011;63804;53.120;8.764;2022-12-07T03:24:09;12.52;;;4.10;;
54919;SDS011;63804;53.120;8.764;2022-12-07T03:26:47;13.15;;;4.25;;
54919;SDS011;63804;53.120;8.764;2022-12-07T03:29:22;11.73;;;3.88;;
54919;SDS011;63804;53.120;8.764;2022-12-07T03:31:52;11.57;;;3.42;;
54919;SDS011;63804;53.120;8.764;2022-12-07T03:34:46;10.80;;;3.38;;
54919;SDS011;63804;53.120;8.764;2022-12-07T03:37:20;9.88;;;2.95;;
54919;SDS011;63804;53.120;8.764;2022-12-07T03:42:41;9.95;;;2.80;;
54919;SDS011;63804;53.120;8.764;2022-12-07T03:45:08;8.40;;;2.20;;
54919;SDS011;63804;53.120;8.764;2022-12-07T03:47:47;8.20;;;2.25;;
54919;SDS011;63804;53.120;8.764;2022-12-07T03:50:50;10.70;;;3.35;;
54919;SDS011;63804;53.120;8.764;2022-12-07T03:53:34;8.35;;;3.25;;
54919;SDS011;63804;53.120;8.764;2022-12-07T03:56:05;13.98;;;3.47;;
54919;SDS011;63804;53.120;8.764;2022-12-07T03:58:33;10.48;;;3.45;;
54919;SDS011;63804;53.120;8.764;2022-12-07T04:01:00;11.10;;;3.40;;
54919;SDS011;63804;53.120;8.764;2022-12-07T04:03:26;11.18;;;3.38;;
54919;SDS011;63804;53.120;8.764;2022-12-07T04:05:52;12.15;;;2.88;;
54919;SDS011;63804;53.120;8.764;2022-12-07T04:08:19;11.32;;;3.47;;
54919;SDS011;63804;53.120;8.764;2022-12-07T04:10:44;14.32;;;3.63;;
54919;SDS011;63804;53.120;8.764;2022-12-07T04:13:10;13.93;;;3.63;;
54919;SDS011;63804;53.120;8.764;2022-12-07T04:15:36;11.18;;;3.15;;
54919;SDS011;63804;53.120;8.764;2022-12-07T04:18:02;10.77;;;3.58;;
54919;SDS011;63804;53.120;8.764;2022-12-07T04:20:28;10.73;;;3.58;;
54919;SDS011;63804;53.120;8.764;2022-12-07T04:22:53;10.73;;;4.00;;
54919;SDS011;63804;53.120;8.764;2022-12-07T04:25:19;10.80;;;4.00;;
54919;SDS011;63804;53.120;8.764;2022-12-07T04:27:45;11.00;;;3.90;;
54919;SDS011;63804;53.120;8.764;2022-12-07T04:30:11;10.23;;;3.65;;
54919;SDS011;63804;53.120;8.764;2022-12-07T04:32:36;12.25;;;4.10;;
54919;SDS011;63804;53.120;8.764;2022-12-07T04:35:02;10.90;;;3.80;;
54919;SDS011;63804;53.120;8.764;2022-12-07T04:37:28;11.05;;;3.75;;
54919;SDS011;63804;53.120;8.764;2022-12-07T04:39:54;13.65;;;4.03;;
54919;SDS011;63804;53.120;8.764;2022-12-07T04:42:20;10.68;;;4.10;;
54919;SDS011;63804;53.120;8.764;2022-12-07T04:44:45;13.52;;;4.03;;
54919;SDS011;63804;53.120;8.764;2022-12-07T04:47:11;11.02;;;4.05;;
54919;SDS011;63804;53.120;8.764;2022-12-07T04:49:37;12.15;;;3.47;;
54919;SDS011;63804;53.120;8.764;2022-12-07T04:52:03;10.43;;;3.90;;
54919;SDS011;63804;53.120;8.764;2022-12-07T04:54:28;11.70;;;4.03;;
54919;SDS011;63804;53.120;8.764;2022-12-07T04:56:54;11.98;;;3.83;;
54919;SDS011;63804;53.120;8.764;2022-12-07T04:59:20;11.45;;;4.28;;
54919;SDS011;63804;53.120;8.764;2022-12-07T05:01:45;9.27;;;3.78;;
54919;SDS011;63804;53.120;8.764;2022-12-07T05:04:11;10.13;;;3.10;;
54919;SDS011;63804;53.120;8.764;2022-12-07T05:06:37;10.65;;;3.20;;
54919;SDS011;63804;53.120;8.764;2022-12-07T05:09:03;10.63;;;3.22;;
54919;SDS011;63804;53.120;8.764;2022-12-07T05:11:29;11.63;;;3.28;;
54919;SDS011;63804;53.120;8.764;2022-12-07T05:14:04;10.75;;;3.70;;
54919;SDS011;63804;53.120;8.764;2022-12-07T05:16:32;8.40;;;3.28;;
54919;SDS011;63804;53.120;8.764;2022-12-07T05:18:58;10.50;;;3.30;;
54919;SDS011;63804;53.120;8.764;2022-12-07T05:21:24;9.77;;;3.08;;
54919;SDS011;63804;53.120;8.764;2022-12-07T05:23:50;10.30;;;3.20;;
54919;SDS011;63804;53.120;8.764;2022-12-07T05:26:16;9.20;;;2.80;;
54919;SDS011;63804;53.120;8.764;2022-12-07T05:28:42;4.78;;;2.30;;
54919;SDS011;63804;53.120;8.764;2022-12-07T05:31:08;9.85;;;2.83;;
54919;SDS011;63804;53.120;8.764;2022-12-07T05:33:40;8.95;;;3.03;;
54919;SDS011;63804;53.120;8.764;2022-12-07T05:36:06;7.25;;;2.60;;
54919;SDS011;63804;53.120;8.764;2022-12-07T05:38:32;7.55;;;2.65;;
54919;SDS011;63804;53.120;8.764;2022-12-07T05:41:02;6.70;;;1.90;;
54919;SDS011;63804;53.120;8.764;2022-12-07T05:43:29;8.35;;;2.50;;
54919;SDS011;63804;53.120;8.764;2022-12-07T05:45:55;8.35;;;2.20;;
54919;SDS011;63804;53.120;8.764;2022-12-07T05:48:21;8.15;;;1.98;;
54919;SDS011;63804;53.120;8.764;2022-12-07T05:50:48;7.82;;;2.00;;
54919;SDS011;63804;53.120;8.764;2022-12-07T05:53:14;8.55;;;1.88;;
54919;SDS011;63804;53.120;8.764;2022-12-07T05:55:40;4.18;;;1.30;;
54919;SDS011;63804;53.120;8.764;2022-12-07T05:58:05;8.52;;;1.60;;
54919;SDS011;63804;53.120;8.764;2022-12-07T06:00:49;6.15;;;1.60;;
54919;SDS011;63804;53.120;8.764;2022-12-07T06:03:15;9.45;;;1.70;;
54919;SDS011;63804;53.120;8.764;2022-12-07T06:05:41;7.05;;;1.63;;
54919;SDS011;63804;53.120;8.764;2022-12-07T06:08:07;6.65;;;2.00;;
54919;SDS011;63804;53.120;8.764;2022-12-07T06:10:33;8.20;;;2.28;;
54919;SDS011;63804;53.120;8.764;2022-12-07T06:12:59;7.72;;;2.30;;
54919;SDS011;63804;53.120;8.764;2022-12-07T06:15:24;8.63;;;2.53;;
54919;SDS011;63804;53.120;8.764;2022-12-07T06:17:50;6.80;;;2.60;;
54919;SDS011;63804;53.120;8.764;2022-12-07T06:20:16;10.00;;;3.15;;
54919;SDS011;63804;53.120;8.764;2022-12-07T06:22:42;8.27;;;2.97;;
54919;SDS011;63804;53.120;8.764;2022-12-07T06:25:08;9.05;;;2.28;;
54919;SDS011;63804;53.120;8.764;2022-12-07T06:27:35;6.90;;;1.60;;
54919;SDS011;63804;53.120;8.764;2022-12-07T06:30:01;5.43;;;1.40;;
54919;SDS011;63804;53.120;8.764;2022-12-07T06:32:32;7.47;;;1.80;;
54919;SDS011;63804;53.120;8.764;2022-12-07T06:34:59;6.25;;;1.20;;
54919;SDS011;63804;53.120;8.764;2022-12-07T06:37:26;7.05;;;1.30;;
54919;SDS011;63804;53.120;8.764;2022-12-07T06:39:52;7.55;;;1.40;;
54919;SDS011;63804;53.120;8.764;2022-12-07T06:42:18;5.55;;;1.50;;
54919;SDS011;63804;53.120;8.764;2022-12-07T06:44:43;5.40;;;1.58;;
54919;SDS011;63804;53.120;8.764;2022-12-07T06:47:09;11.13;;;2.60;;
54919;SDS011;63804;53.120;8.764;2022-12-07T06:49:35;15.82;;;3.42;;
54919;SDS011;63804;53.120;8.764;2022-12-07T06:52:00;8.95;;;2.67;;
54919;SDS011;63804;53.120;8.764;2022-12-07T06:54:26;10.90;;;3.00;;
54919;SDS011;63804;53.120;8.764;2022-12-07T06:56:52;13.50;;;2.45;;
54919;SDS011;63804;53.120;8.764;2022-12-07T06:59:18;8.40;;;2.28;;
54919;SDS011;63804;53.120;8.764;2022-12-07T07:01:44;12.43;;;1.80;;
54919;SDS011;63804;53.120;8.764;2022-12-07T07:04:09;10.35;;;1.77;;
54919;SDS011;63804;53.120;8.764;2022-12-07T07:06:35;10.32;;;1.65;;
54919;SDS011;63804;53.120;8.764;2022-12-07T07:09:01;9.73;;;1.40;;
54919;SDS011;63804;53.120;8.764;2022-12-07T07:11:27;6.50;;;1.65;;
54919;SDS011;63804;53.120;8.764;2022-12-07T07:13:52;7.07;;;1.27;;
54919;SDS011;63804;53.120;8.764;2022-12-07T07:16:19;7.57;;;1.52;;
54919;SDS011;63804;53.120;8.764;2022-12-07T07:18:44;9.23;;;2.00;;
54919;SDS011;63804;53.120;8.764;2022-12-07T07:21:10;5.18;;;1.70;;
54919;SDS011;63804;53.120;8.764;2022-12-07T07:23:36;8.00;;;1.30;;
54919;SDS011;63804;53.120;8.764;2022-12-07T07:26:05;6.60;;;1.58;;
54919;SDS011;63804;53.120;8.764;2022-12-07T07:28:36;7.65;;;1.52;;
54919;SDS011;63804;53.120;8.764;2022-12-07T07:33:29;10.15;;;1.75;;
54919;SDS011;63804;53.120;8.764;2022-12-07T07:35:55;6.63;;;1.63;;
54919;SDS011;63804;53.120;8.764;2022-12-07T07:38:21;7.90;;;1.83;;
54919;SDS011;63804;53.120;8.764;2022-12-07T07:40:46;7.80;;;1.50;;
54919;SDS011;63804;53.120;8.764;2022-12-07T07:43:12;9.13;;;1.52;;
54919;SDS011;63804;53.120;8.764;2022-12-07T07:45:38;8.55;;;1.75;;
54919;SDS011;63804;53.120;8.764;2022-12-07T07:48:04;8.20;;;1.52;;
54919;SDS011;63804;53.120;8.764;2022-12-07T07:50:29;5.75;;;1.33;;
54919;SDS011;63804;53.120;8.764;2022-12-07T07:52:56;7.13;;;1.50;;
54919;SDS011;63804;53.120;8.764;2022-12-07T07:55:22;4.40;;;1.25;;
54919;SDS011;63804;53.120;8.764;2022-12-07T07:57:48;7.63;;;1.40;;
54919;SDS011;63804;53.120;8.764;2022-12-07T08:00:14;5.28;;;1.30;;
54919;SDS011;63804;53.120;8.764;2022-12-07T08:02:41;7.45;;;1.02;;
54919;SDS011;63804;53.120;8.764;2022-12-07T08:05:08;3.92;;;1.10;;
54919;SDS011;63804;53.120;8.764;2022-12-07T08:07:35;3.00;;;0.88;;
54919;SDS011;63804;53.120;8.764;2022-12-07T08:10:01;7.57;;;1.30;;
54919;SDS011;63804;53.120;8.764;2022-12-07T08:12:27;7.82;;;1.42;;
54919;SDS011;63804;53.120;8.764;2022-12-07T08:14:53;5.43;;;1.05;;
54919;SDS011;63804;53.120;8.764;2022-12-07T08:17:18;6.13;;;1.15;;
54919;SDS011;63804;53.120;8.764;2022-12-07T08:19:44;6.22;;;1.38;;
54919;SDS011;63804;53.120;8.764;2022-12-07T08:22:10;5.30;;;1.33;;
54919;SDS011;63804;53.120;8.764;2022-12-07T08:24:35;7.57;;;1.10;;
54919;SDS011;63804;53.120;8.764;2022-12-07T08:27:02;7.25;;;1.30;;
54919;SDS011;63804;53.120;8.764;2022-12-07T08:29:28;5.38;;;1.50;;
54919;SDS011;63804;53.120;8.764;2022-12-07T08:31:54;3.40;;;1.38;;
54919;SDS011;63804;53.120;8.764;2022-12-07T08:34:19;5.57;;;1.02;;
54919;SDS011;63804;53.120;8.764;2022-12-07T08:36:45;5.43;;;1.10;;
54919;SDS011;63804;53.120;8.764;2022-12-07T08:39:11;3.67;;;0.88;;
54919;SDS011;63804;53.120;8.764;2022-12-07T08:41:36;4.50;;;1.00;;
54919;SDS011;63804;53.120;8.764;2022-12-07T08:44:02;5.18;;;1.08;;
54919;SDS011;63804;53.120;8.764;2022-12-07T08:46:37;2.58;;;0.90;;
54919;SDS011;63804;53.120;8.764;2022-12-07T08:49:09;6.40;;;1.17;;
54919;SDS011;63804;53.120;8.764;2022-12-07T08:51:38;4.35;;;1.00;;
54919;SDS011;63804;53.120;8.764;2022-12-07T08:54:06;6.05;;;1.00;;
54919;SDS011;63804;53.120;8.764;2022-12-07T08:56:34;10.25;;;1.58;;
54919;SDS011;63804;53.120;8.764;2022-12-07T08:59:00;7.97;;;1.00;;
54919;SDS011;63804;53.120;8.764;2022-12-07T09:01:26;4.13;;;0.75;;
54919;SDS011;63804;53.120;8.764;2022-12-07T09:03:53;10.32;;;1.17;;
54919;SDS011;63804;53.120;8.764;2022-12-07T09:06:18;4.68;;;1.23;;
54919;SDS011;63804;53.120;8.764;2022-12-07T09:08:46;9.35;;;1.83;;
54919;SDS011;63804;53.120;8.764;2022-12-07T09:11:15;8.82;;;2.08;;
54919;SDS011;63804;53.120;8.764;2022-12-07T09:13:41;4.80;;;1.90;;
54919;SDS011;63804;53.120;8.764;2022-12-07T09:16:06;4.07;;;1.52;;
54919;SDS011;63804;53.120;8.764;2022-12-07T09:18:32;5.22;;;1.10;;
54919;SDS011;63804;53.120;8.764;2022-12-07T09:20:58;7.57;;;1.00;;
54919;SDS011;63804;53.120;8.764;2022-12-07T09:23:24;6.82;;;1.13;;
54919;SDS011;63804;53.120;8.764;2022-12-07T09:25:50;6.45;;;1.30;;
54919;SDS011;63804;53.120;8.764;2022-12-07T09:28:15;4.32;;;1.05;;
54919;SDS011;63804;53.120;8.764;2022-12-07T09:30:47;4.68;;;1.00;;
54919;SDS011;63804;53.120;8.764;2022-12-07T09:33:14;6.97;;;1.30;;
54919;SDS011;63804;53.120;8.764;2022-12-07T09:35:46;9.88;;;2.03;;
54919;SDS011;63804;53.120;8.764;2022-12-07T09:38:15;6.72;;;1.08;;
54919;SDS011;63804;53.120;8.764;2022-12-07T09:40:42;8.75;;;1.67;;
54919;SDS011;63804;53.120;8.764;2022-12-07T09:43:17;6.40;;;1.60;;
54919;SDS011;63804;53.120;8.764;2022-12-07T09:45:46;4.88;;;1.35;;
54919;SDS011;63804;53.120;8.764;2022-12-07T09:48:16;7.35;;;1.60;;
54919;SDS011;63804;53.120;8.764;2022-12-07T09:50:47;7.70;;;2.15;;
54919;SDS011;63804;53.120;8.764;2022-12-07T09:53:15;8.85;;;2.15;;
54919;SDS011;63804;53.120;8.764;2022-12-07T09:55:51;10.13;;;2.42;;
54919;SDS011;63804;53.120;8.764;2022-12-07T09:58:24;8.05;;;1.80;;
54919;SDS011;63804;53.120;8.764;2022-12-07T10:00:53;11.18;;;1.85;;
54919;SDS011;63804;53.120;8.764;2022-12-07T10:03:25;9.48;;;1.65;;
54919;SDS011;63804;53.120;8.764;2022-12-07T10:05:52;6.07;;;1.50;;
54919;SDS011;63804;53.120;8.764;2022-12-07T10:08:18;8.27;;;1.40;;
54919;SDS011;63804;53.120;8.764;2022-12-07T10:10:45;6.05;;;1.38;;
54919;SDS011;63804;53.120;8.764;2022-12-07T10:13:20;4.95;;;1.23;;
54919;SDS011;63804;53.120;8.764;2022-12-07T10:15:58;7.47;;;1.83;;
54919;SDS011;63804;53.120;8.764;2022-12-07T10:21:27;8.30;;;1.58;;
54919;SDS011;63804;53.120;8.764;2022-12-07T10:31:54;5.38;;;1.35;;
54919;SDS011;63804;53.120;8.764;2022-12-07T10:34:24;8.85;;;2.38;;
54919;SDS011;63804;53.120;8.764;2022-12-07T10:36:55;10.73;;;3.35;;
54919;SDS011;63804;53.120;8.764;2022-12-07T10:39:49;9.40;;;2.70;;
54919;SDS011;63804;53.120;8.764;2022-12-07T10:44:45;6.95;;;2.28;;
54919;SDS011;63804;53.120;8.764;2022-12-07T10:50:02;6.07;;;1.90;;
54919;SDS011;63804;53.120;8.764;2022-12-07T11:00:22;8.93;;;1.30;;
54919;SDS011;63804;53.120;8.764;2022-12-07T11:06:01;9.57;;;1.33;;
54919;SDS011;63804;53.120;8.764;2022-12-07T11:17:35;9.25;;;2.17;;
54919;SDS011;63804;53.120;8.764;2022-12-07T11:23:24;13.07;;;2.10;;
54919;SDS011;63804;53.120;8.764;2022-12-07T11:37:46;8.60;;;2.15;;
54919;SDS011;63804;53.120;8.764;2022-12-07T11:40:26;8.00;;;2.03;;
54919;SDS011;63804;53.120;8.764;2022-12-07T11:43:00;6.53;;;1.40;;
54919;SDS011;63804;53.120;8.764;2022-12-07T11:45:44;7.68;;;1.35;;
54919;SDS011;63804;53.120;8.764;2022-12-07T11:48:19;11.52;;;1.83;;
54919;SDS011;63804;53.120;8.764;2022-12-07T11:50:48;8.45;;;1.92;;
54919;SDS011;63804;53.120;8.764;2022-12-07T11:53:30;9.20;;;1.58;;
54919;SDS011;63804;53.120;8.764;2022-12-07T11:56:12;7.85;;;1.65;;
54919;SDS011;63804;53.120;8.764;2022-12-07T11:58:42;7.43;;;1.33;;
54919;SDS011;63804;53.120;8.764;2022-12-07T12:06:42;10.13;;;1.60;;
54919;SDS011;63804;53.120;8.764;2022-12-07T12:09:22;8.23;;;2.15;;
54919;SDS011;63804;53.120;8.764;2022-12-07T12:17:56;5.97;;;1.60;;
54919;SDS011;63804;53.120;8.764;2022-12-07T12:20:42;7.47;;;1.65;;
54919;SDS011;63804;53.120;8.764;2022-12-07T12:23:44;7.05;;;1.83;;
54919;SDS011;63804;53.120;8.764;2022-12-07T12:26:17;7.78;;;1.90;;
54919;SDS011;63804;53.120;8.764;2022-12-07T12:28:54;8.48;;;2.40;;
54919;SDS011;63804;53.120;8.764;2022-12-07T12:33:53;11.68;;;1.98;;
54919;SDS011;63804;53.120;8.764;2022-12-07T12:36:23;6.85;;;1.73;;
54919;SDS011;63804;53.120;8.764;2022-12-07T12:51:55;5.63;;;1.10;;
54919;SDS011;63804;53.120;8.764;2022-12-07T12:54:24;6.60;;;1.50;;
54919;SDS011;63804;53.120;8.764;2022-12-07T12:56:52;7.38;;;1.52;;
54919;SDS011;63804;53.120;8.764;2022-12-07T13:18:55;13.90;;;2.65;;
54919;SDS011;63804;53.120;8.764;2022-12-07T13:26:12;10.45;;;1.70;;
54919;SDS011;63804;53.120;8.764;2022-12-07T13:28:52;9.15;;;2.22;;
54919;SDS011;63804;53.120;8.764;2022-12-07T13:33:56;11.43;;;2.30;;
54919;SDS011;63804;53.120;8.764;2022-12-07T13:36:25;10.13;;;2.00;;
54919;SDS011;63804;53.120;8.764;2022-12-07T13:38:55;13.90;;;2.67;;
54919;SDS011;63804;53.120;8.764;2022-12-07T13:41:29;8.82;;;2.30;;
54919;SDS011;63804;53.120;8.764;2022-12-07T13:43:59;9.27;;;2.45;;
54919;SDS011;63804;53.120;8.764;2022-12-07T13:46:41;15.43;;;2.88;;
54919;SDS011;63804;53.120;8.764;2022-12-07T13:51:45;12.13;;;2.63;;
54919;SDS011;63804;53.120;8.764;2022-12-07T13:54:12;17.65;;;2.47;;
54919;SDS011;63804;53.120;8.764;2022-12-07T13:56:39;12.88;;;2.97;;
54919;SDS011;63804;53.120;8.764;2022-12-07T13:59:10;13.32;;;3.13;;
54919;SDS011;63804;53.120;8.764;2022-12-07T14:01:40;10.57;;;3.10;;
54919;SDS011;63804;53.120;8.764;2022-12-07T14:04:19;10.43;;;2.13;;
54919;SDS011;63804;53.120;8.764;2022-12-07T14:06:56;10.27;;;2.00;;
54919;SDS011;63804;53.120;8.764;2022-12-07T14:09:23;8.57;;;1.83;;
54919;SDS011;63804;53.120;8.764;2022-12-07T14:11:51;6.70;;;1.55;;
54919;SDS011;63804;53.120;8.764;2022-12-07T14:14:22;8.73;;;2.30;;
54919;SDS011;63804;53.120;8.764;2022-12-07T14:17:09;18.45;;;5.53;;
54919;SDS011;63804;53.120;8.764;2022-12-07T14:19:59;12.90;;;3.78;;
54919;SDS011;63804;53.120;8.764;2022-12-07T14:25:00;8.75;;;1.95;;
54919;SDS011;63804;53.120;8.764;2022-12-07T14:27:38;11.18;;;2.17;;
54919;SDS011;63804;53.120;8.764;2022-12-07T14:30:04;9.30;;;2.40;;
54919;SDS011;63804;53.120;8.764;2022-12-07T14:32:31;9.10;;;2.63;;
54919;SDS011;63804;53.120;8.764;2022-12-07T14:34:59;10.95;;;2.67;;
54919;SDS011;63804;53.120;8.764;2022-12-07T14:37:26;12.40;;;3.10;;
54919;SDS011;63804;53.120;8.764;2022-12-07T14:39:53;11.85;;;2.75;;
54919;SDS011;63804;53.120;8.764;2022-12-07T14:42:19;9.13;;;2.50;;
54919;SDS011;63804;53.120;8.764;2022-12-07T14:44:47;10.52;;;2.70;;
54919;SDS011;63804;53.120;8.764;2022-12-07T14:47:12;10.38;;;2.47;;
54919;SDS011;63804;53.120;8.764;2022-12-07T14:49:38;13.75;;;3.30;;
54919;SDS011;63804;53.120;8.764;2022-12-07T14:52:04;14.43;;;3.00;;
54919;SDS011;63804;53.120;8.764;2022-12-07T14:54:31;15.10;;;4.07;;
54919;SDS011;63804;53.120;8.764;2022-12-07T14:56:58;15.25;;;4.82;;
54919;SDS011;63804;53.120;8.764;2022-12-07T14:59:24;15.98;;;4.50;;
54919;SDS011;63804;53.120;8.764;2022-12-07T15:01:49;19.17;;;4.78;;
54919;SDS011;63804;53.120;8.764;2022-12-07T15:04:15;16.70;;;5.00;;
54919;SDS011;63804;53.120;8.764;2022-12-07T15:06:41;14.02;;;4.78;;
54919;SDS011;63804;53.120;8.764;2022-12-07T15:09:10;11.73;;;3.30;;
54919;SDS011;63804;53.120;8.764;2022-12-07T15:11:36;13.23;;;3.20;;
54919;SDS011;63804;53.120;8.764;2022-12-07T15:14:02;13.38;;;2.80;;
54919;SDS011;63804;53.120;8.764;2022-12-07T15:16:34;10.13;;;1.70;;
54919;SDS011;63804;53.120;8.764;2022-12-07T15:19:01;5.45;;;1.55;;
54919;SDS011;63804;53.120;8.764;2022-12-07T15:21:27;5.13;;;1.27;;
54919;SDS011;63804;53.120;8.764;2022-12-07T15:23:53;4.43;;;1.25;;
54919;SDS011;63804;53.120;8.764;2022-12-07T15:26:19;6.90;;;1.25;;
54919;SDS011;63804;53.120;8.764;2022-12-07T15:28:44;6.93;;;1.60;;
54919;SDS011;63804;53.120;8.764;2022-12-07T15:31:13;6.85;;;1.80;;
54919;SDS011;63804;53.120;8.764;2022-12-07T15:33:40;6.90;;;1.60;;
54919;SDS011;63804;53.120;8.764;2022-12-07T15:36:07;6.35;;;2.13;;
54919;SDS011;63804;53.120;8.764;2022-12-07T15:38:33;5.97;;;2.60;;
54919;SDS011;63804;53.120;8.764;2022-12-07T15:40:58;10.45;;;3.53;;
54919;SDS011;63804;53.120;8.764;2022-12-07T15:43:24;9.38;;;3.20;;
54919;SDS011;63804;53.120;8.764;2022-12-07T15:46:08;9.65;;;3.75;;
54919;SDS011;63804;53.120;8.764;2022-12-07T15:48:34;8.48;;;2.63;;
54919;SDS011;63804;53.120;8.764;2022-12-07T15:51:03;7.72;;;2.00;;
54919;SDS011;63804;53.120;8.764;2022-12-07T15:53:31;5.60;;;2.10;;
54919;SDS011;63804;53.120;8.764;2022-12-07T15:55:56;7.00;;;1.83;;
54919;SDS011;63804;53.120;8.764;2022-12-07T15:58:22;9.90;;;2.50;;
54919;SDS011;63804;53.120;8.764;2022-12-07T16:00:48;8.43;;;1.85;;
54919;SDS011;63804;53.120;8.764;2022-12-07T16:03:14;3.60;;;1.20;;
54919;SDS011;63804;53.120;8.764;2022-12-07T16:05:39;8.20;;;2.00;;
54919;SDS011;63804;53.120;8.764;2022-12-07T16:08:05;5.95;;;1.50;;
54919;SDS011;63804;53.120;8.764;2022-12-07T16:10:31;7.75;;;1.52;;
54919;SDS011;63804;53.120;8.764;2022-12-07T16:12:57;6.35;;;1.67;;
54919;SDS011;63804;53.120;8.764;2022-12-07T16:15:22;8.25;;;1.55;;
54919;SDS011;63804;53.120;8.764;2022-12-07T16:17:50;6.07;;;1.77;;
54919;SDS011;63804;53.120;8.764;2022-12-07T16:20:16;11.63;;;2.13;;
54919;SDS011;63804;53.120;8.764;2022-12-07T16:22:42;8.27;;;1.73;;
54919;SDS011;63804;53.120;8.764;2022-12-07T16:25:08;7.07;;;1.80;;
54919;SDS011;63804;53.120;8.764;2022-12-07T16:27:34;5.25;;;1.50;;
54919;SDS011;63804;53.120;8.764;2022-12-07T16:30:00;9.35;;;1.98;;
54919;SDS011;63804;53.120;8.764;2022-12-07T16:32:25;6.78;;;1.80;;
54919;SDS011;63804;53.120;8.764;2022-12-07T16:34:51;8.88;;;1.75;;
54919;SDS011;63804;53.120;8.764;2022-12-07T16:37:17;10.18;;;1.80;;
54919;SDS011;63804;53.120;8.764;2022-12-07T16:39:43;10.10;;;2.15;;
54919;SDS011;63804;53.120;8.764;2022-12-07T16:42:09;8.25;;;2.20;;
54919;SDS011;63804;53.120;8.764;2022-12-07T16:44:35;7.78;;;1.80;;
54919;SDS011;63804;53.120;8.764;2022-12-07T16:47:01;6.18;;;1.70;;
54919;SDS011;63804;53.120;8.764;2022-12-07T16:49:27;4.95;;;1.40;;
54919;SDS011;63804;53.120;8.764;2022-12-07T16:51:53;9.98;;;1.70;;
54919;SDS011;63804;53.120;8.764;2022-12-07T16:54:19;8.57;;;2.50;;
54919;SDS011;63804;53.120;8.764;2022-12-07T16:56:45;10.30;;;2.80;;
54919;SDS011;63804;53.120;8.764;2022-12-07T16:59:11;8.32;;;2.70;;
54919;SDS011;63804;53.120;8.764;2022-12-07T17:01:37;12.27;;;3.20;;
54919;SDS011;63804;53.120;8.764;2022-12-07T17:04:02;10.60;;;3.08;;
54919;SDS011;63804;53.120;8.764;2022-12-07T17:06:36;8.67;;;2.70;;
54919;SDS011;63804;53.120;8.764;2022-12-07T17:09:01;7.70;;;2.80;;
54919;SDS011;63804;53.120;8.764;2022-12-07T17:11:29;4.40;;;1.85;;
54919;SDS011;63804;53.120;8.764;2022-12-07T17:13:58;5.93;;;1.85;;